Time;durP1;ratioP1;P1;durP2;ratioP2;P2;SDS_P1;SDS_P2;PMS_P1;PMS_P2;Temp;Humidity;BMP_temperature;BMP_pressure;BME280_temperature;BME280_humidity;BME280_pressure;Samples;Min_cycle;Max_cycle;Signal;HPM_P1;HPM_P2
2022/01/05 00:01:18;;;;;;;13.70;7.83;;;6.30;99.90;;;;;;10236891;28;20043;-87
2022/01/05 00:06:19;;;;;;;14.63;8.87;;;6.20;99.90;;;;;;10253262;28;20054;-86
2022/01/05 00:11:20;;;;;;;15.67;8.73;;;6.20;99.90;;;;;;10254761;28;20038;-88
2022/01/05 00:16:21;;;;;;;15.27;7.93;;;6.10;99.90;;;;;;10263720;28;20395;-87
2022/01/05 00:21:21;;;;;;;12.43;6.83;;;6.10;99.90;;;;;;10270830;28;20054;-89
2022/01/05 00:26:22;;;;;;;10.60;6.40;;;6.00;99.90;;;;;;10247707;28;20027;-87
2022/01/05 00:31:24;;;;;;;12.83;6.60;;;5.90;99.90;;;;;;10271252;28;20481;-88
2022/01/05 00:36:24;;;;;;;13.70;6.30;;;5.90;99.90;;;;;;10253727;28;20034;-87
2022/01/05 00:41:25;;;;;;;11.67;6.10;;;5.80;99.90;;;;;;10249858;28;20081;-87
2022/01/05 00:46:26;;;;;;;14.23;7.27;;;5.80;99.90;;;;;;10267448;28;20034;-88
2022/01/05 00:51:26;;;;;;;13.20;7.63;;;5.70;99.90;;;;;;10263679;28;20122;-89
2022/01/05 00:56:27;;;;;;;17.67;8.73;;;5.70;99.90;;;;;;10278981;28;20027;-86
2022/01/05 01:01:28;;;;;;;33.10;13.43;;;5.70;99.90;;;;;;10274975;28;20030;-88
2022/01/05 01:06:28;;;;;;;15.50;9.07;;;5.70;99.90;;;;;;10255348;28;20589;-87
2022/01/05 01:11:29;;;;;;;22.90;11.70;;;5.70;99.90;;;;;;10262163;28;20050;-88
2022/01/05 01:16:30;;;;;;;24.70;12.43;;;5.70;99.90;;;;;;10256538;28;20019;-88
2022/01/05 01:21:31;;;;;;;34.17;18.43;;;5.70;99.90;;;;;;10262038;28;20116;-87
2022/01/05 01:26:33;;;;;;;23.90;12.73;;;5.70;99.90;;;;;;10231804;28;20162;-87
2022/01/05 01:31:34;;;;;;;34.00;19.47;;;5.70;99.90;;;;;;10276457;28;20047;-86
2022/01/05 01:36:35;;;;;;;42.97;20.70;;;5.70;99.90;;;;;;10261793;28;20035;-88
2022/01/05 01:41:35;;;;;;;29.83;15.70;;;5.70;99.90;;;;;;10234029;28;20047;-87
2022/01/05 01:46:36;;;;;;;35.33;18.50;;;5.70;99.90;;;;;;10241348;28;20122;-86
2022/01/05 01:51:37;;;;;;;32.37;17.63;;;5.60;99.90;;;;;;10283734;28;20034;-87
2022/01/05 01:56:38;;;;;;;35.67;19.33;;;5.60;99.90;;;;;;10250301;28;20510;-88
2022/01/05 02:01:40;;;;;;;46.00;23.30;;;5.60;99.90;;;;;;10265377;28;20042;-89
2022/01/05 02:06:40;;;;;;;37.40;18.70;;;5.60;99.90;;;;;;10267770;28;20042;-86
2022/01/05 02:11:42;;;;;;;37.90;18.73;;;5.60;99.90;;;;;;10277715;28;20033;-87
2022/01/05 02:16:44;;;;;;;41.23;20.97;;;5.50;99.90;;;;;;10268422;28;20039;-87
2022/01/05 02:21:45;;;;;;;44.90;23.00;;;5.50;99.90;;;;;;10258935;28;20068;-87
2022/01/05 02:26:46;;;;;;;45.93;24.70;;;5.50;99.90;;;;;;10270587;28;20037;-86
2022/01/05 02:31:47;;;;;;;51.67;27.73;;;5.50;99.90;;;;;;10290179;28;20395;-87
2022/01/05 02:36:48;;;;;;;51.70;25.27;;;5.50;99.90;;;;;;10295080;28;20031;-87
2022/01/05 02:41:49;;;;;;;60.23;27.57;;;5.50;99.90;;;;;;10260696;28;20055;-87
2022/01/05 02:46:49;;;;;;;50.53;26.10;;;5.40;99.90;;;;;;10265032;28;20062;-87
2022/01/05 02:51:50;;;;;;;49.47;27.20;;;5.40;99.90;;;;;;10259773;28;20126;-86
2022/01/05 02:56:53;;;;;;;48.00;25.47;;;5.40;99.90;;;;;;10286620;28;20035;-87
2022/01/05 03:01:54;;;;;;;46.10;23.33;;;5.40;99.90;;;;;;10287851;28;20522;-87
2022/01/05 03:06:54;;;;;;;45.57;22.60;;;5.30;99.90;;;;;;10289837;28;20062;-86
2022/01/05 03:11:55;;;;;;;59.63;27.77;;;5.30;99.90;;;;;;10262484;28;20054;-85
2022/01/05 03:16:56;;;;;;;56.40;26.73;;;5.10;99.90;;;;;;10290026;28;20080;-87
2022/01/05 03:21:57;;;;;;;56.23;25.73;;;5.00;99.90;;;;;;10236091;29;20046;-88
2022/01/05 03:26:57;;;;;;;74.73;34.07;;;4.80;99.90;;;;;;10268643;28;20030;-86
2022/01/05 03:31:58;;;;;;;59.20;27.50;;;4.60;99.90;;;;;;10290054;28;20054;-87
2022/01/05 03:37:00;;;;;;;60.00;28.83;;;4.60;99.90;;;;;;10252193;28;20033;-89
2022/01/05 03:42:00;;;;;;;56.03;27.23;;;4.50;99.90;;;;;;10239640;28;20141;-87
2022/01/05 03:47:02;;;;;;;56.57;27.17;;;4.30;99.90;;;;;;10290359;28;20170;-86
2022/01/05 03:52:04;;;;;;;97.63;38.77;;;4.30;99.90;;;;;;10241771;28;20542;-87
2022/01/05 03:57:05;;;;;;;140.00;55.50;;;4.10;99.90;;;;;;10241416;29;20030;-88
2022/01/05 04:02:05;;;;;;;149.10;56.33;;;4.00;99.90;;;;;;10260726;28;20047;-87
2022/01/05 04:07:06;;;;;;;122.67;43.10;;;4.00;99.90;;;;;;10261077;28;20019;-88
2022/01/05 04:12:07;;;;;;;97.87;40.30;;;4.00;99.90;;;;;;10243455;28;20027;-87
2022/01/05 04:17:08;;;;;;;105.00;41.50;;;3.90;99.90;;;;;;10255761;28;20030;-87
2022/01/05 04:22:09;;;;;;;107.13;47.03;;;3.90;99.90;;;;;;10235245;28;20474;-86
2022/01/05 04:27:09;;;;;;;84.20;38.87;;;3.90;99.90;;;;;;10235259;28;20078;-87
2022/01/05 04:32:10;;;;;;;78.90;37.50;;;3.90;99.90;;;;;;10267312;28;20539;-89
2022/01/05 04:37:11;;;;;;;77.53;36.33;;;4.00;99.90;;;;;;10272546;28;20395;-84
2022/01/05 04:42:12;;;;;;;117.53;44.10;;;4.00;99.90;;;;;;10276667;28;20039;-89
2022/01/05 04:47:12;;;;;;;129.93;47.87;;;4.00;99.90;;;;;;10266612;28;20808;-87
2022/01/05 04:52:13;;;;;;;105.40;43.07;;;4.00;99.90;;;;;;10270385;28;20050;-87
2022/01/05 04:57:15;;;;;;;121.30;52.57;;;4.10;99.90;;;;;;10260929;28;20026;-85
2022/01/05 05:02:15;;;;;;;141.03;63.43;;;4.10;99.90;;;;;;10280923;28;20121;-87
2022/01/05 05:07:16;;;;;;;204.27;81.93;;;4.10;99.90;;;;;;10244738;28;20026;-86
2022/01/05 05:12:17;;;;;;;138.57;64.50;;;4.20;99.90;;;;;;10281776;28;20393;-85
2022/01/05 05:17:17;;;;;;;159.90;70.63;;;4.20;99.90;;;;;;10261965;28;20031;-85
2022/01/05 05:22:18;;;;;;;190.00;86.27;;;4.20;99.90;;;;;;10249166;28;20043;-84
2022/01/05 05:27:19;;;;;;;173.87;83.10;;;4.30;99.90;;;;;;10253160;28;20019;-86
2022/01/05 05:32:20;;;;;;;140.20;71.80;;;4.30;99.90;;;;;;10247671;28;20113;-86
2022/01/05 05:37:22;;;;;;;189.10;78.33;;;4.30;99.90;;;;;;10251087;28;20488;-84
2022/01/05 05:42:23;;;;;;;122.60;55.67;;;4.30;99.90;;;;;;10255993;28;20031;-88
2022/01/05 05:47:23;;;;;;;148.37;65.70;;;4.30;99.90;;;;;;10243243;28;20118;-85
2022/01/05 05:52:24;;;;;;;160.47;65.13;;;4.40;99.90;;;;;;10252785;28;20181;-86
2022/01/05 05:57:26;;;;;;;154.30;61.50;;;4.30;99.90;;;;;;10268625;28;20050;-86
2022/01/05 06:02:26;;;;;;;107.93;53.83;;;4.40;99.90;;;;;;10285182;28;20043;-86
2022/01/05 06:07:27;;;;;;;129.27;56.87;;;4.40;99.90;;;;;;10266142;28;20038;-85
2022/01/05 06:12:28;;;;;;;117.00;54.63;;;4.50;99.90;;;;;;10285549;28;20053;-87
2022/01/05 06:17:29;;;;;;;105.60;49.77;;;4.50;99.90;;;;;;10270486;28;20042;-86
2022/01/05 06:22:29;;;;;;;137.70;58.23;;;4.60;99.90;;;;;;10284860;28;20493;-85
2022/01/05 06:27:30;;;;;;;115.87;50.70;;;4.70;99.90;;;;;;10280931;28;20504;-86
2022/01/05 06:32:31;;;;;;;131.97;59.00;;;4.70;99.90;;;;;;10271828;28;20509;-87
2022/01/05 06:37:33;;;;;;;107.73;48.57;;;4.70;99.90;;;;;;10270213;28;20087;-86
2022/01/05 06:42:33;;;;;;;140.00;65.90;;;4.70;99.90;;;;;;10255360;28;20130;-84
2022/01/05 06:47:34;;;;;;;155.70;69.00;;;4.80;99.90;;;;;;10254391;28;20027;-84
2022/01/05 06:52:35;;;;;;;125.37;60.03;;;4.80;99.90;;;;;;10282897;28;20472;-85
2022/01/05 06:57:39;;;;;;;191.83;102.43;;;4.80;99.90;;;;;;10248427;28;20043;-86
2022/01/05 07:02:40;;;;;;;154.70;70.67;;;4.80;99.90;;;;;;10267907;28;20043;-87
2022/01/05 07:07:41;;;;;;;213.90;95.83;;;4.80;99.90;;;;;;10260058;28;20578;-84
2022/01/05 07:12:42;;;;;;;224.27;111.13;;;4.80;99.90;;;;;;10292489;28;20107;-84
2022/01/05 07:17:43;;;;;;;216.07;97.90;;;4.80;99.90;;;;;;10257130;28;20027;-85
2022/01/05 07:22:44;;;;;;;207.43;93.37;;;4.80;99.90;;;;;;10252430;28;20067;-84
2022/01/05 07:27:44;;;;;;;144.77;74.50;;;4.80;99.90;;;;;;10268097;28;20109;-86
2022/01/05 07:32:45;;;;;;;254.50;104.33;;;4.70;99.90;;;;;;10261690;28;20059;-86
2022/01/05 07:37:46;;;;;;;239.10;118.43;;;4.80;99.90;;;;;;10235249;28;20041;-86
2022/01/05 07:42:46;;;;;;;283.33;129.30;;;4.80;99.90;;;;;;10271684;28;20547;-85
2022/01/05 07:47:47;;;;;;;316.60;142.70;;;4.90;99.90;;;;;;10255656;28;20035;-90
2022/01/05 07:52:48;;;;;;;390.07;187.47;;;4.90;99.90;;;;;;10249151;28;20090;-89
2022/01/05 07:57:49;;;;;;;434.13;209.33;;;5.00;99.90;;;;;;10258651;28;20033;-86
2022/01/05 08:02:50;;;;;;;350.53;178.27;;;5.00;99.90;;;;;;10244616;28;20430;-90
2022/01/05 08:07:51;;;;;;;412.83;211.97;;;5.00;99.90;;;;;;10242496;28;20042;-91
2022/01/05 08:12:51;;;;;;;253.17;118.90;;;5.00;99.90;;;;;;10274254;28;20027;-89
2022/01/05 08:17:52;;;;;;;197.43;96.93;;;5.10;99.90;;;;;;10250888;28;20031;-89
2022/01/05 08:22:53;;;;;;;232.13;97.37;;;5.10;99.90;;;;;;10265953;28;20047;-91
2022/01/05 08:27:54;;;;;;;210.13;96.00;;;5.20;99.90;;;;;;10277424;28;20102;-90
2022/01/05 08:32:54;;;;;;;207.43;120.57;;;5.20;99.90;;;;;;10240264;28;20055;-89
2022/01/05 08:37:56;;;;;;;195.53;102.93;;;5.20;99.90;;;;;;10271212;28;20085;-89
2022/01/05 08:42:58;;;;;;;113.27;52.63;;;5.30;99.90;;;;;;10284412;28;20031;-88
2022/01/05 08:47:59;;;;;;;76.93;40.70;;;5.30;99.90;;;;;;10257924;28;20505;-90
2022/01/05 08:53:01;;;;;;;105.67;59.77;;;5.40;99.90;;;;;;10274732;28;20035;-89
2022/01/05 08:58:02;;;;;;;86.30;45.20;;;5.40;99.90;;;;;;10253535;28;20114;-89
2022/01/05 09:03:05;;;;;;;92.10;50.60;;;5.50;99.90;;;;;;10262666;28;20117;-88
2022/01/05 09:08:06;;;;;;;66.13;35.37;;;5.40;99.90;;;;;;10266132;28;20510;-90
2022/01/05 09:13:09;;;;;;;43.93;23.33;;;5.50;99.90;;;;;;10265774;28;20023;-89
2022/01/05 09:18:10;;;;;;;65.27;25.40;;;5.50;99.90;;;;;;10267031;28;20022;-88
2022/01/05 09:23:11;;;;;;;53.93;24.63;;;5.50;99.90;;;;;;10267415;28;20060;-89
2022/01/05 09:28:12;;;;;;;56.23;26.00;;;5.50;99.90;;;;;;10270556;28;20566;-89
2022/01/05 09:33:14;;;;;;;224.10;82.63;;;5.50;99.90;;;;;;10264299;28;20068;-90
2022/01/05 09:43:51;;;;;;;;;;;5.60;99.90;;;;;;10248789;28;20047;-90
2022/01/05 09:49:16;;;;;;;276.63;107.97;;;5.80;99.90;;;;;;10267594;28;19918;-91
2022/01/05 09:54:16;;;;;;;189.23;76.97;;;5.90;99.90;;;;;;10281487;28;20055;-89
2022/01/05 09:59:18;;;;;;;178.30;67.73;;;6.10;99.90;;;;;;10268251;28;20660;-91
2022/01/05 10:04:18;;;;;;;175.10;69.80;;;6.20;99.90;;;;;;10273702;28;20042;-91
2022/01/05 10:09:19;;;;;;;112.40;47.47;;;6.20;99.90;;;;;;10274419;28;20019;-90
2022/01/05 10:14:20;;;;;;;113.70;52.00;;;6.20;99.90;;;;;;10264930;28;20427;-89
2022/01/05 10:19:21;;;;;;;136.57;55.63;;;6.20;99.90;;;;;;10264710;28;20119;-89
2022/01/05 10:24:42;;;;;;;81.90;38.07;;;6.20;99.90;;;;;;10261696;28;20434;-91
2022/01/05 10:30:00;;;;;;;112.00;49.63;;;6.20;99.90;;;;;;10259833;28;20142;-90
2022/01/05 10:35:05;;;;;;;101.83;44.50;;;6.20;99.90;;;;;;10261396;28;20530;-89
2022/01/05 10:40:09;;;;;;;69.63;33.40;;;6.20;99.90;;;;;;10277629;28;20114;-87
2022/01/05 10:45:17;;;;;;;113.67;49.77;;;6.20;99.90;;;;;;10271608;28;20372;-89
2022/01/05 10:50:19;;;;;;;61.27;29.00;;;6.20;99.90;;;;;;10285832;28;20059;-89
2022/01/05 10:55:22;;;;;;;48.87;24.93;;;6.10;99.90;;;;;;10277728;28;20035;-87
2022/01/05 11:00:36;;;;;;;76.07;35.67;;;6.10;99.90;;;;;;10239291;28;20431;-86
2022/01/05 11:05:37;;;;;;;89.67;40.00;;;6.00;99.90;;;;;;10235255;28;20031;-86
2022/01/05 11:10:38;;;;;;;112.87;50.30;;;6.00;99.90;;;;;;10236394;28;20480;-86
2022/01/05 11:15:39;;;;;;;85.07;45.33;;;6.00;99.90;;;;;;10237230;28;20035;-86
2022/01/05 11:20:59;;;;;;;92.53;46.10;;;6.00;99.90;;;;;;10273532;28;20038;-86
2022/01/05 11:26:01;;;;;;;70.50;37.53;;;6.00;99.90;;;;;;10287180;28;20039;-86
2022/01/05 11:31:04;;;;;;;72.10;37.13;;;5.90;99.90;;;;;;10234870;28;20087;-86
2022/01/05 11:36:06;;;;;;;66.60;35.07;;;6.00;99.90;;;;;;10256123;28;20672;-87
2022/01/05 11:41:10;;;;;;;79.57;40.73;;;6.00;99.90;;;;;;10270269;28;20533;-86
2022/01/05 11:46:23;;;;;;;73.13;37.93;;;5.90;99.90;;;;;;10273421;28;20042;-84
2022/01/05 11:51:42;;;;;;;58.37;31.87;;;6.00;99.90;;;;;;10283777;28;20368;-85
2022/01/05 11:56:47;;;;;;;58.40;30.50;;;6.00;99.90;;;;;;10289534;28;20678;-85
2022/01/05 12:01:58;;;;;;;65.40;32.77;;;5.90;99.90;;;;;;10269127;28;20034;-85
2022/01/05 12:07:02;;;;;;;57.83;30.07;;;5.90;99.90;;;;;;10287710;28;20650;-85
2022/01/05 12:12:24;;;;;;;74.07;36.80;;;5.90;99.90;;;;;;10256233;28;20038;-85
2022/01/05 12:17:26;;;;;;;61.27;31.33;;;5.90;99.90;;;;;;10284076;28;20022;-85
2022/01/05 12:22:31;;;;;;;65.80;32.83;;;5.90;99.90;;;;;;10281603;28;20050;-86
2022/01/05 12:27:50;;;;;;;66.03;33.70;;;5.90;99.90;;;;;;10276656;28;20078;-86
2022/01/05 12:33:23;;;;;;;90.13;46.07;;;5.90;99.90;;;;;;10250907;28;20050;-87
2022/01/05 12:38:55;;;;;;;66.33;33.50;;;5.90;99.90;;;;;;10247801;28;20124;-88
2022/01/05 12:43:58;;;;;;;50.53;27.40;;;5.90;99.90;;;;;;10251135;28;20054;-87
2022/01/05 12:49:02;;;;;;;59.80;30.57;;;5.90;99.90;;;;;;10260272;28;20055;-87
2022/01/05 12:54:29;;;;;;;265.60;97.80;;;6.00;99.90;;;;;;10269728;28;20137;-87
2022/01/05 12:59:47;;;;;;;80.75;33.40;;;6.00;99.90;;;;;;10260368;28;20065;-87
2022/01/05 13:04:47;;;;;;;72.10;32.30;;;5.90;99.90;;;;;;10270463;28;20118;-87
2022/01/05 13:09:53;;;;;;;69.27;30.87;;;5.80;99.90;;;;;;10267603;28;20034;-88
2022/01/05 13:14:55;;;;;;;;;;;5.80;99.90;;;;;;10256030;28;20034;-88
2022/01/05 13:20:03;;;;;;;43.27;22.10;;;5.80;99.90;;;;;;10269372;28;20353;-90
2022/01/05 13:25:06;;;;;;;54.97;26.10;;;5.80;99.90;;;;;;10256812;28;20380;-89
2022/01/05 13:30:10;;;;;;;37.77;19.73;;;5.80;99.90;;;;;;10256326;28;20447;-87
2022/01/05 13:35:20;;;;;;;52.10;25.33;;;5.70;99.90;;;;;;10252328;28;20067;-88
2022/01/05 13:40:23;;;;;;;47.70;24.43;;;5.70;99.90;;;;;;10271635;28;20043;-87
2022/01/05 13:45:29;;;;;;;50.57;26.10;;;5.70;99.90;;;;;;10243015;28;20071;-88
2022/01/05 13:50:33;;;;;;;55.23;29.40;;;5.70;99.90;;;;;;10277706;28;20118;-86
2022/01/05 13:55:48;;;;;;;61.33;31.17;;;5.70;99.90;;;;;;10265664;28;20082;-89
2022/01/05 14:01:04;;;;;;;53.60;29.07;;;5.70;99.90;;;;;;10253552;28;20497;-88
2022/01/05 14:06:07;;;;;;;68.20;35.20;;;5.60;99.90;;;;;;10277526;28;20031;-86
2022/01/05 14:11:18;;;;;;;81.37;39.67;;;5.60;99.90;;;;;;10277292;28;20058;-92
2022/01/05 14:16:39;;;;;;;68.93;37.17;;;5.60;99.90;;;;;;10261750;28;20019;-90
2022/01/05 14:21:43;;;;;;;66.37;34.03;;;5.60;99.90;;;;;;10259712;28;20102;-87
2022/01/05 14:26:57;;;;;;;76.97;38.43;;;5.60;99.90;;;;;;10269487;28;20038;-90
2022/01/05 14:32:04;;;;;;;93.40;46.30;;;5.60;99.90;;;;;;10250971;28;20102;-86
2022/01/05 14:37:11;;;;;;;71.23;38.50;;;5.60;99.90;;;;;;10263457;28;20038;-87
2022/01/05 14:42:14;;;;;;;73.67;38.20;;;5.50;99.90;;;;;;10250362;28;20568;-91
2022/01/05 14:47:24;;;;;;;72.53;38.43;;;5.50;99.90;;;;;;10269064;28;20031;-89
2022/01/05 14:52:26;;;;;;;118.87;56.27;;;5.50;99.90;;;;;;10271363;28;20027;-89
2022/01/05 14:57:27;;;;;;;38.13;20.47;;;5.50;99.90;;;;;;10285376;28;20552;-86
2022/01/05 15:02:28;;;;;;;35.00;19.60;;;5.40;99.90;;;;;;10267771;28;20095;-86
2022/01/05 15:07:30;;;;;;;66.17;27.27;;;5.10;99.90;;;;;;10282787;28;20455;-87
2022/01/05 15:12:31;;;;;;;53.67;24.23;;;4.90;99.90;;;;;;10257923;28;20110;-86
2022/01/05 15:17:31;;;;;;;53.70;22.30;;;4.70;99.90;;;;;;10267013;28;20045;-87
2022/01/05 15:22:32;;;;;;;25.73;11.07;;;4.60;99.90;;;;;;10272438;28;20328;-86
2022/01/05 15:27:33;;;;;;;19.80;8.90;;;4.40;99.90;;;;;;10283841;28;20137;-86
2022/01/05 15:32:34;;;;;;;27.90;12.03;;;4.20;99.90;;;;;;10263452;28;20066;-89
2022/01/05 15:37:34;;;;;;;13.87;5.87;;;4.00;99.90;;;;;;10282625;28;20125;-88
2022/01/05 15:42:35;;;;;;;10.67;3.60;;;3.80;99.90;;;;;;10281310;28;20038;-88
2022/01/05 15:47:36;;;;;;;6.70;3.10;;;3.60;99.90;;;;;;10269761;28;20035;-87
2022/01/05 15:52:38;;;;;;;12.30;4.27;;;3.30;99.90;;;;;;10272393;28;20039;-86
2022/01/05 16:02:39;;;;;;;6.00;2.83;;;2.90;99.90;;;;;;10278289;28;20035;-85
2022/01/05 16:07:40;;;;;;;10.13;3.60;;;2.80;99.90;;;;;;10282498;28;20035;-87
2022/01/05 16:12:41;;;;;;;8.60;3.80;;;2.70;99.90;;;;;;10271694;28;20039;-86
2022/01/05 16:17:45;;;;;;;9.43;3.90;;;2.60;99.90;;;;;;10260969;28;20081;-88
2022/01/05 16:22:46;;;;;;;13.97;6.27;;;2.50;99.90;;;;;;10254325;28;20126;-91
2022/01/05 16:27:49;;;;;;;14.63;5.27;;;2.50;99.90;;;;;;10270866;28;20069;-90
2022/01/05 16:32:49;;;;;;;14.33;6.30;;;2.60;99.90;;;;;;10258897;28;20043;-88
2022/01/05 16:37:50;;;;;;;12.97;6.97;;;2.50;99.90;;;;;;10262365;28;20031;-89
2022/01/05 16:42:52;;;;;;;21.30;7.13;;;2.50;99.90;;;;;;10256603;28;20394;-90
2022/01/05 16:47:55;;;;;;;48.07;20.17;;;2.60;99.90;;;;;;10257301;28;20026;-89
2022/01/05 16:52:57;;;;;;;19.43;8.87;;;2.50;99.90;;;;;;10248186;28;20062;-89
2022/01/05 17:03:16;;;;;;;41.37;16.90;;;2.40;99.90;;;;;;10272654;28;20038;-85
2022/01/05 17:08:18;;;;;;;17.93;9.23;;;2.30;99.90;;;;;;10276021;28;20031;-85
2022/01/05 17:13:19;;;;;;;22.47;9.90;;;2.30;99.90;;;;;;10271229;28;20023;-87
2022/01/05 17:18:22;;;;;;;28.63;10.43;;;2.20;99.90;;;;;;10266943;28;20415;-86
2022/01/05 17:23:22;;;;;;;81.70;31.17;;;2.10;99.90;;;;;;10270481;28;20041;-85
2022/01/05 17:28:23;;;;;;;114.07;47.20;;;2.10;99.90;;;;;;10280897;28;20045;-85
2022/01/05 17:33:24;;;;;;;85.90;34.67;;;2.10;99.90;;;;;;10263691;28;20069;-86
2022/01/05 17:38:25;;;;;;;59.27;24.13;;;2.10;99.90;;;;;;10269876;28;20031;-85
2022/01/05 17:43:26;;;;;;;60.07;25.20;;;2.10;99.90;;;;;;10250936;28;20049;-84
2022/01/05 17:48:27;;;;;;;109.37;45.73;;;2.00;99.90;;;;;;10271788;28;20101;-83
2022/01/05 17:53:30;;;;;;;62.87;26.80;;;2.00;99.90;;;;;;10269948;28;20038;-85
2022/01/05 17:58:30;;;;;;;51.57;21.10;;;2.00;99.90;;;;;;10253729;28;20093;-84
2022/01/05 18:03:32;;;;;;;55.20;22.77;;;2.00;99.90;;;;;;10275444;28;20850;-85
2022/01/05 18:08:32;;;;;;;108.57;44.93;;;2.00;99.90;;;;;;10267946;28;20699;-87
2022/01/05 18:13:33;;;;;;;66.73;24.87;;;2.00;99.90;;;;;;10247995;28;20042;-87
2022/01/05 18:18:39;;;;;;;70.17;24.40;;;2.00;99.90;;;;;;10257434;28;20094;-85
2022/01/05 18:23:40;;;;;;;43.67;19.75;;;1.90;99.90;;;;;;10264040;28;20534;-87
2022/01/05 18:28:41;;;;;;;50.17;22.70;;;1.90;99.90;;;;;;10272652;28;20046;-88
2022/01/05 18:33:42;;;;;;;53.67;23.60;;;1.90;99.90;;;;;;10269387;28;20026;-85
2022/01/05 18:38:43;;;;;;;76.47;32.90;;;1.90;99.90;;;;;;10265944;28;20066;-85
2022/01/05 18:43:44;;;;;;;63.83;27.23;;;1.80;99.90;;;;;;10241853;28;20039;-86
2022/01/05 18:48:48;;;;;;;67.60;27.47;;;1.80;99.90;;;;;;10265654;28;20031;-85
2022/01/05 18:53:50;;;;;;;63.00;27.43;;;1.70;99.90;;;;;;10268482;28;20105;-83
2022/01/05 18:58:53;;;;;;;82.17;30.30;;;1.70;99.90;;;;;;10243635;28;20483;-84
2022/01/05 19:03:54;;;;;;;57.87;23.20;;;1.70;99.90;;;;;;10279907;28;20090;-84
2022/01/05 19:08:55;;;;;;;87.67;31.63;;;1.70;99.90;;;;;;10293669;28;20026;-85
2022/01/05 19:13:56;;;;;;;67.27;29.80;;;1.60;99.90;;;;;;10289885;28;20031;-83
2022/01/05 19:18:57;;;;;;;71.60;31.13;;;1.70;99.90;;;;;;10277879;28;20027;-86
2022/01/05 19:23:58;;;;;;;81.80;41.00;;;1.60;99.90;;;;;;10252879;28;20066;-87
2022/01/05 19:28:59;;;;;;;69.03;34.70;;;1.60;99.90;;;;;;10282513;28;20054;-82
2022/01/05 19:33:59;;;;;;;63.53;30.53;;;1.60;99.90;;;;;;10289250;28;20031;-86
2022/01/05 19:39:00;;;;;;;64.60;32.97;;;1.60;99.90;;;;;;10257801;28;20034;-83
2022/01/05 19:44:02;;;;;;;72.73;35.20;;;1.60;99.90;;;;;;10272894;28;20046;-85
2022/01/05 19:49:04;;;;;;;75.80;34.63;;;1.60;99.90;;;;;;10258439;28;20031;-84
2022/01/05 19:54:26;;;;;;;76.00;37.53;;;1.60;99.90;;;;;;10251417;28;20472;-83
2022/01/05 19:59:32;;;;;;;51.37;25.70;;;1.60;99.90;;;;;;10264033;28;20039;-83
2022/01/05 20:04:33;;;;;;;64.85;27.20;;;1.60;99.90;;;;;;10265715;28;20380;-84
2022/01/05 20:09:39;;;;;;;76.70;35.50;;;1.60;99.90;;;;;;10255790;28;20031;-84
2022/01/05 20:14:39;;;;;;;82.18;39.67;;;1.60;99.90;;;;;;10283212;28;20031;-82
2022/01/05 20:19:40;;;;;;;61.20;30.13;;;1.60;99.90;;;;;;10262041;28;20408;-85
2022/01/05 20:24:41;;;;;;;58.93;27.20;;;1.60;99.90;;;;;;10251418;28;20051;-86
2022/01/05 20:29:43;;;;;;;102.23;42.63;;;1.70;99.90;;;;;;10251684;28;20055;-83
2022/01/05 20:34:45;;;;;;;97.20;45.70;;;1.70;99.90;;;;;;10252912;28;20424;-84
2022/01/05 20:39:45;;;;;;;113.57;51.20;;;1.80;99.90;;;;;;10250647;28;20407;-85
2022/01/05 20:44:46;;;;;;;91.63;44.10;;;1.70;99.90;;;;;;10269431;28;20038;-85
2022/01/05 20:49:47;;;;;;;83.73;38.70;;;1.70;99.90;;;;;;10273209;28;20050;-83
2022/01/05 20:54:48;;;;;;;90.00;40.30;;;1.80;99.90;;;;;;10267626;28;20039;-86
2022/01/05 20:59:48;;;;;;;90.53;42.77;;;1.80;99.90;;;;;;10262085;28;20046;-85
2022/01/05 21:04:49;;;;;;;82.03;37.17;;;1.80;99.90;;;;;;10254960;28;20030;-85
2022/01/05 21:09:50;;;;;;;79.90;38.20;;;1.80;99.90;;;;;;10269559;28;20031;-83
2022/01/05 21:14:51;;;;;;;68.03;31.40;;;1.80;99.90;;;;;;10251812;28;20030;-85
2022/01/05 21:19:54;;;;;;;63.83;29.97;;;1.80;99.90;;;;;;10266553;28;20037;-87
2022/01/05 21:24:54;;;;;;;69.37;30.67;;;1.80;99.90;;;;;;10268582;28;20510;-86
2022/01/05 21:29:55;;;;;;;70.87;33.33;;;1.80;99.90;;;;;;10275628;28;20058;-86
2022/01/05 21:34:56;;;;;;;63.73;31.67;;;1.80;99.90;;;;;;10265151;28;20699;-88
2022/01/05 21:39:57;;;;;;;43.13;20.37;;;1.70;99.90;;;;;;10231706;28;20027;-86
2022/01/05 21:44:57;;;;;;;52.57;23.53;;;1.70;99.90;;;;;;10262480;28;20050;-87
2022/01/05 21:49:59;;;;;;;56.70;22.43;;;1.70;99.90;;;;;;10281551;28;20042;-86
2022/01/05 21:55:00;;;;;;;42.83;21.30;;;1.60;99.90;;;;;;10251002;28;20023;-86
2022/01/05 22:00:01;;;;;;;53.27;22.70;;;1.50;99.90;;;;;;10259244;28;20019;-86
2022/01/05 22:05:02;;;;;;;44.60;20.53;;;1.50;99.90;;;;;;10258612;28;20035;-85
2022/01/05 22:10:03;;;;;;;45.50;21.13;;;1.50;99.90;;;;;;10246822;28;20030;-86
2022/01/05 22:15:05;;;;;;;41.70;19.60;;;1.50;99.90;;;;;;10251104;28;20028;-86
2022/01/05 22:20:07;;;;;;;55.77;26.17;;;1.50;99.90;;;;;;10259627;28;20027;-87
2022/01/05 22:25:08;;;;;;;44.70;19.93;;;1.50;99.90;;;;;;10281290;28;20051;-86
2022/01/05 22:30:09;;;;;;;38.37;17.17;;;1.60;99.90;;;;;;10248248;28;20145;-86
2022/01/05 22:35:10;;;;;;;40.20;18.30;;;1.70;99.90;;;;;;10263962;28;20027;-87
2022/01/05 22:40:13;;;;;;;38.20;19.13;;;1.70;99.90;;;;;;10266610;28;20031;-85
2022/01/05 22:45:14;;;;;;;40.47;18.37;;;1.80;99.90;;;;;;10282491;28;20387;-86
2022/01/05 22:50:14;;;;;;;55.60;22.20;;;1.80;99.90;;;;;;10292781;28;20046;-86
2022/01/05 22:55:15;;;;;;;41.97;18.73;;;1.80;99.90;;;;;;10259711;28;20046;-86
2022/01/05 23:00:22;;;;;;;47.63;19.83;;;1.80;99.90;;;;;;10255092;28;20770;-87
2022/01/05 23:05:24;;;;;;;54.70;21.17;;;1.80;99.90;;;;;;10257780;28;20034;-87
2022/01/05 23:10:29;;;;;;;38.40;15.80;;;1.80;99.90;;;;;;10258422;28;20037;-86
2022/01/05 23:15:30;;;;;;;42.33;16.97;;;1.80;99.90;;;;;;10246250;28;20027;-87
2022/01/05 23:20:34;;;;;;;41.30;20.03;;;1.90;99.90;;;;;;10256747;28;20086;-86
2022/01/05 23:25:35;;;;;;;48.57;20.27;;;1.90;99.90;;;;;;10236249;28;20471;-86
2022/01/05 23:30:36;;;;;;;51.90;21.50;;;1.90;99.90;;;;;;10253438;28;20134;-86
2022/01/05 23:35:37;;;;;;;39.20;17.43;;;1.90;99.90;;;;;;10254870;28;20464;-86
2022/01/05 23:40:38;;;;;;;46.50;22.70;;;1.90;99.90;;;;;;10248557;28;20129;-87
2022/01/05 23:45:39;;;;;;;39.27;17.47;;;1.90;99.90;;;;;;10242049;28;20038;-86
2022/01/05 23:50:40;;;;;;;40.00;19.97;;;1.90;99.90;;;;;;10230067;28;20382;-87
2022/01/05 23:55:41;;;;;;;48.93;24.03;;;1.90;99.90;;;;;;10252302;28;20042;-87
